sensor_id;sensor_type;location;lat;lon;timestamp;P1;durP1;ratioP1;P2;durP2;ratioP2
6358;SDS011;3212;51.460;11.868;2022-12-07T00:00:02;15.20;;;7.73;;
6358;SDS011;3212;51.460;11.868;2022-12-07T00:03:25;14.23;;;7.80;;
6358;SDS011;3212;51.460;11.868;2022-12-07T00:06:50;15.07;;;7.03;;
6358;SDS011;3212;51.460;11.868;2022-12-07T00:10:10;14.30;;;7.60;;
6358;SDS011;3212;51.460;11.868;2022-12-07T00:13:32;11.90;;;6.90;;
6358;SDS011;3212;51.460;11.868;2022-12-07T00:16:54;14.70;;;7.97;;
6358;SDS011;3212;51.460;11.868;2022-12-07T00:20:18;15.00;;;7.60;;
6358;SDS011;3212;51.460;11.868;2022-12-07T00:23:40;13.33;;;7.20;;
6358;SDS011;3212;51.460;11.868;2022-12-07T00:27:02;16.23;;;8.40;;
6358;SDS011;3212;51.460;11.868;2022-12-07T00:30:25;14.02;;;7.25;;
6358;SDS011;3212;51.460;11.868;2022-12-07T00:33:47;16.10;;;8.50;;
6358;SDS011;3212;51.460;11.868;2022-12-07T00:37:10;18.73;;;8.60;;
6358;SDS011;3212;51.460;11.868;2022-12-07T00:40:32;17.67;;;9.23;;
6358;SDS011;3212;51.460;11.868;2022-12-07T00:43:55;15.47;;;7.80;;
6358;SDS011;3212;51.460;11.868;2022-12-07T00:47:17;14.73;;;7.30;;
6358;SDS011;3212;51.460;11.868;2022-12-07T00:50:40;20.63;;;8.80;;
6358;SDS011;3212;51.460;11.868;2022-12-07T00:54:03;18.53;;;8.43;;
6358;SDS011;3212;51.460;11.868;2022-12-07T00:57:25;18.30;;;8.60;;
6358;SDS011;3212;51.460;11.868;2022-12-07T01:00:48;17.70;;;8.30;;
6358;SDS011;3212;51.460;11.868;2022-12-07T01:04:10;18.57;;;10.03;;
6358;SDS011;3212;51.460;11.868;2022-12-07T01:07:32;16.13;;;8.83;;
6358;SDS011;3212;51.460;11.868;2022-12-07T01:10:58;21.27;;;10.00;;
6358;SDS011;3212;51.460;11.868;2022-12-07T01:14:23;19.30;;;9.17;;
6358;SDS011;3212;51.460;11.868;2022-12-07T01:17:45;20.23;;;8.77;;
6358;SDS011;3212;51.460;11.868;2022-12-07T01:21:10;20.17;;;9.20;;
6358;SDS011;3212;51.460;11.868;2022-12-07T01:24:31;17.17;;;9.13;;
6358;SDS011;3212;51.460;11.868;2022-12-07T01:27:53;17.13;;;8.57;;
6358;SDS011;3212;51.460;11.868;2022-12-07T01:31:18;17.57;;;8.63;;
6358;SDS011;3212;51.460;11.868;2022-12-07T01:34:39;19.43;;;8.27;;
6358;SDS011;3212;51.460;11.868;2022-12-07T01:38:02;18.07;;;8.20;;
6358;SDS011;3212;51.460;11.868;2022-12-07T01:41:26;17.73;;;7.43;;
6358;SDS011;3212;51.460;11.868;2022-12-07T01:48:24;19.00;;;8.60;;
6358;SDS011;3212;51.460;11.868;2022-12-07T01:51:45;16.40;;;7.83;;
6358;SDS011;3212;51.460;11.868;2022-12-07T01:55:08;17.30;;;8.00;;
6358;SDS011;3212;51.460;11.868;2022-12-07T01:58:30;14.40;;;7.23;;
6358;SDS011;3212;51.460;11.868;2022-12-07T02:01:53;18.17;;;8.40;;
6358;SDS011;3212;51.460;11.868;2022-12-07T02:05:16;17.03;;;7.53;;
6358;SDS011;3212;51.460;11.868;2022-12-07T02:08:38;15.47;;;7.60;;
6358;SDS011;3212;51.460;11.868;2022-12-07T02:12:01;17.03;;;8.50;;
6358;SDS011;3212;51.460;11.868;2022-12-07T02:15:28;15.17;;;7.43;;
6358;SDS011;3212;51.460;11.868;2022-12-07T02:19:02;16.60;;;8.00;;
6358;SDS011;3212;51.460;11.868;2022-12-07T02:22:27;14.80;;;7.37;;
6358;SDS011;3212;51.460;11.868;2022-12-07T02:25:53;16.33;;;8.23;;
6358;SDS011;3212;51.460;11.868;2022-12-07T02:29:22;16.47;;;7.83;;
6358;SDS011;3212;51.460;11.868;2022-12-07T02:32:45;15.02;;;6.90;;
6358;SDS011;3212;51.460;11.868;2022-12-07T02:36:14;13.50;;;7.13;;
6358;SDS011;3212;51.460;11.868;2022-12-07T02:39:42;12.90;;;6.73;;
6358;SDS011;3212;51.460;11.868;2022-12-07T02:43:08;15.67;;;7.27;;
6358;SDS011;3212;51.460;11.868;2022-12-07T02:46:31;15.23;;;6.87;;
6358;SDS011;3212;51.460;11.868;2022-12-07T02:49:52;18.17;;;7.90;;
6358;SDS011;3212;51.460;11.868;2022-12-07T02:57:01;13.73;;;6.60;;
6358;SDS011;3212;51.460;11.868;2022-12-07T03:00:23;15.13;;;7.43;;
6358;SDS011;3212;51.460;11.868;2022-12-07T03:03:47;15.90;;;7.33;;
6358;SDS011;3212;51.460;11.868;2022-12-07T03:07:11;14.63;;;7.90;;
6358;SDS011;3212;51.460;11.868;2022-12-07T03:10:50;13.10;;;7.13;;
6358;SDS011;3212;51.460;11.868;2022-12-07T03:14:13;14.27;;;6.83;;
6358;SDS011;3212;51.460;11.868;2022-12-07T03:17:49;12.27;;;7.20;;
6358;SDS011;3212;51.460;11.868;2022-12-07T03:21:14;14.13;;;6.63;;
6358;SDS011;3212;51.460;11.868;2022-12-07T03:24:36;11.60;;;6.13;;
6358;SDS011;3212;51.460;11.868;2022-12-07T03:27:58;13.90;;;6.70;;
6358;SDS011;3212;51.460;11.868;2022-12-07T03:31:22;12.23;;;6.30;;
6358;SDS011;3212;51.460;11.868;2022-12-07T03:34:47;15.30;;;6.50;;
6358;SDS011;3212;51.460;11.868;2022-12-07T03:41:48;12.40;;;6.87;;
6358;SDS011;3212;51.460;11.868;2022-12-07T03:45:11;15.63;;;6.30;;
6358;SDS011;3212;51.460;11.868;2022-12-07T03:48:36;10.07;;;5.97;;
6358;SDS011;3212;51.460;11.868;2022-12-07T03:52:02;11.40;;;6.27;;
6358;SDS011;3212;51.460;11.868;2022-12-07T03:55:34;12.73;;;6.27;;
6358;SDS011;3212;51.460;11.868;2022-12-07T03:58:56;14.97;;;6.17;;
6358;SDS011;3212;51.460;11.868;2022-12-07T04:02:19;9.73;;;5.60;;
6358;SDS011;3212;51.460;11.868;2022-12-07T04:05:41;11.70;;;6.70;;
6358;SDS011;3212;51.460;11.868;2022-12-07T04:09:04;12.32;;;5.93;;
6358;SDS011;3212;51.460;11.868;2022-12-07T04:12:27;10.30;;;5.90;;
6358;SDS011;3212;51.460;11.868;2022-12-07T04:15:50;11.00;;;6.13;;
6358;SDS011;3212;51.460;11.868;2022-12-07T04:19:12;11.13;;;6.03;;
6358;SDS011;3212;51.460;11.868;2022-12-07T04:22:35;12.93;;;7.03;;
6358;SDS011;3212;51.460;11.868;2022-12-07T04:25:57;11.80;;;6.20;;
6358;SDS011;3212;51.460;11.868;2022-12-07T04:29:20;11.37;;;6.50;;
6358;SDS011;3212;51.460;11.868;2022-12-07T04:32:43;11.27;;;5.83;;
6358;SDS011;3212;51.460;11.868;2022-12-07T04:36:05;9.90;;;5.53;;
6358;SDS011;3212;51.460;11.868;2022-12-07T04:39:28;11.93;;;6.53;;
6358;SDS011;3212;51.460;11.868;2022-12-07T04:42:50;10.33;;;5.50;;
6358;SDS011;3212;51.460;11.868;2022-12-07T04:46:12;12.00;;;6.03;;
6358;SDS011;3212;51.460;11.868;2022-12-07T04:49:35;9.93;;;6.00;;
6358;SDS011;3212;51.460;11.868;2022-12-07T04:52:57;10.10;;;5.97;;
6358;SDS011;3212;51.460;11.868;2022-12-07T04:56:20;11.93;;;6.57;;
6358;SDS011;3212;51.460;11.868;2022-12-07T04:59:42;9.70;;;6.10;;
6358;SDS011;3212;51.460;11.868;2022-12-07T05:03:05;11.53;;;5.87;;
6358;SDS011;3212;51.460;11.868;2022-12-07T05:06:28;12.77;;;6.27;;
6358;SDS011;3212;51.460;11.868;2022-12-07T05:09:51;11.00;;;5.97;;
6358;SDS011;3212;51.460;11.868;2022-12-07T05:13:13;8.33;;;5.20;;
6358;SDS011;3212;51.460;11.868;2022-12-07T05:16:36;9.30;;;5.60;;
6358;SDS011;3212;51.460;11.868;2022-12-07T05:19:58;8.10;;;5.30;;
6358;SDS011;3212;51.460;11.868;2022-12-07T05:23:21;11.00;;;6.07;;
6358;SDS011;3212;51.460;11.868;2022-12-07T05:26:44;8.47;;;5.17;;
6358;SDS011;3212;51.460;11.868;2022-12-07T05:30:06;10.03;;;5.90;;
6358;SDS011;3212;51.460;11.868;2022-12-07T05:33:29;10.53;;;5.90;;
6358;SDS011;3212;51.460;11.868;2022-12-07T05:36:52;15.90;;;6.27;;
6358;SDS011;3212;51.460;11.868;2022-12-07T05:40:15;11.93;;;6.10;;
6358;SDS011;3212;51.460;11.868;2022-12-07T05:43:37;9.70;;;5.83;;
6358;SDS011;3212;51.460;11.868;2022-12-07T05:47:00;11.57;;;6.73;;
6358;SDS011;3212;51.460;11.868;2022-12-07T05:50:23;11.77;;;6.33;;
6358;SDS011;3212;51.460;11.868;2022-12-07T05:53:45;12.63;;;6.33;;
6358;SDS011;3212;51.460;11.868;2022-12-07T05:57:08;11.87;;;6.70;;
6358;SDS011;3212;51.460;11.868;2022-12-07T06:00:32;11.27;;;6.20;;
6358;SDS011;3212;51.460;11.868;2022-12-07T06:03:54;14.40;;;6.43;;
6358;SDS011;3212;51.460;11.868;2022-12-07T06:07:17;15.40;;;6.93;;
6358;SDS011;3212;51.460;11.868;2022-12-07T06:10:40;12.80;;;6.80;;
6358;SDS011;3212;51.460;11.868;2022-12-07T06:14:02;13.23;;;6.80;;
6358;SDS011;3212;51.460;11.868;2022-12-07T06:17:25;13.17;;;6.67;;
6358;SDS011;3212;51.460;11.868;2022-12-07T06:20:48;14.27;;;7.10;;
6358;SDS011;3212;51.460;11.868;2022-12-07T06:24:11;15.43;;;7.00;;
6358;SDS011;3212;51.460;11.868;2022-12-07T06:27:34;14.57;;;7.80;;
6358;SDS011;3212;51.460;11.868;2022-12-07T06:30:58;13.70;;;7.50;;
6358;SDS011;3212;51.460;11.868;2022-12-07T06:34:20;13.20;;;7.00;;
6358;SDS011;3212;51.460;11.868;2022-12-07T06:37:43;15.63;;;7.30;;
6358;SDS011;3212;51.460;11.868;2022-12-07T06:41:06;17.90;;;8.37;;
6358;SDS011;3212;51.460;11.868;2022-12-07T06:44:28;16.03;;;8.47;;
6358;SDS011;3212;51.460;11.868;2022-12-07T06:47:51;16.12;;;7.22;;
6358;SDS011;3212;51.460;11.868;2022-12-07T06:51:14;16.80;;;8.50;;
6358;SDS011;3212;51.460;11.868;2022-12-07T06:54:36;19.33;;;9.17;;
6358;SDS011;3212;51.460;11.868;2022-12-07T06:57:59;13.90;;;7.30;;
6358;SDS011;3212;51.460;11.868;2022-12-07T07:01:22;17.02;;;8.20;;
6358;SDS011;3212;51.460;11.868;2022-12-07T07:04:44;15.87;;;7.80;;
6358;SDS011;3212;51.460;11.868;2022-12-07T07:08:07;15.30;;;8.20;;
6358;SDS011;3212;51.460;11.868;2022-12-07T07:11:30;17.53;;;8.77;;
6358;SDS011;3212;51.460;11.868;2022-12-07T07:14:52;20.70;;;8.33;;
6358;SDS011;3212;51.460;11.868;2022-12-07T07:18:15;16.25;;;7.40;;
6358;SDS011;3212;51.460;11.868;2022-12-07T07:21:37;14.67;;;7.70;;
6358;SDS011;3212;51.460;11.868;2022-12-07T07:25:00;18.33;;;9.10;;
6358;SDS011;3212;51.460;11.868;2022-12-07T07:28:22;17.63;;;8.30;;
6358;SDS011;3212;51.460;11.868;2022-12-07T07:31:45;14.37;;;8.13;;
6358;SDS011;3212;51.460;11.868;2022-12-07T07:35:08;15.23;;;8.00;;
6358;SDS011;3212;51.460;11.868;2022-12-07T07:38:31;18.62;;;8.95;;
6358;SDS011;3212;51.460;11.868;2022-12-07T07:41:54;18.73;;;8.20;;
6358;SDS011;3212;51.460;11.868;2022-12-07T07:45:17;16.53;;;8.10;;
6358;SDS011;3212;51.460;11.868;2022-12-07T07:48:39;17.62;;;8.30;;
6358;SDS011;3212;51.460;11.868;2022-12-07T07:52:02;18.33;;;8.37;;
6358;SDS011;3212;51.460;11.868;2022-12-07T07:55:24;22.17;;;8.90;;
6358;SDS011;3212;51.460;11.868;2022-12-07T07:58:51;20.70;;;7.83;;
6358;SDS011;3212;51.460;11.868;2022-12-07T08:02:13;18.90;;;8.07;;
6358;SDS011;3212;51.460;11.868;2022-12-07T08:05:34;17.97;;;8.03;;
6358;SDS011;3212;51.460;11.868;2022-12-07T08:08:56;18.83;;;8.50;;
6358;SDS011;3212;51.460;11.868;2022-12-07T08:12:19;18.43;;;9.30;;
6358;SDS011;3212;51.460;11.868;2022-12-07T08:15:43;15.43;;;8.43;;
6358;SDS011;3212;51.460;11.868;2022-12-07T08:19:05;17.77;;;8.47;;
6358;SDS011;3212;51.460;11.868;2022-12-07T08:22:27;15.50;;;8.10;;
6358;SDS011;3212;51.460;11.868;2022-12-07T08:25:50;17.47;;;9.33;;
6358;SDS011;3212;51.460;11.868;2022-12-07T08:29:12;17.53;;;8.97;;
6358;SDS011;3212;51.460;11.868;2022-12-07T08:32:35;15.57;;;7.83;;
6358;SDS011;3212;51.460;11.868;2022-12-07T08:36:01;18.00;;;8.70;;
6358;SDS011;3212;51.460;11.868;2022-12-07T08:39:23;17.70;;;8.80;;
6358;SDS011;3212;51.460;11.868;2022-12-07T08:42:49;16.23;;;7.40;;
6358;SDS011;3212;51.460;11.868;2022-12-07T08:46:13;14.53;;;7.57;;
6358;SDS011;3212;51.460;11.868;2022-12-07T08:49:39;15.33;;;7.60;;
6358;SDS011;3212;51.460;11.868;2022-12-07T08:53:01;14.60;;;7.10;;
6358;SDS011;3212;51.460;11.868;2022-12-07T08:56:23;11.87;;;6.33;;
6358;SDS011;3212;51.460;11.868;2022-12-07T08:59:46;14.37;;;7.30;;
6358;SDS011;3212;51.460;11.868;2022-12-07T09:03:09;20.13;;;8.50;;
6358;SDS011;3212;51.460;11.868;2022-12-07T09:06:31;18.43;;;7.80;;
6358;SDS011;3212;51.460;11.868;2022-12-07T09:09:55;15.40;;;7.93;;
6358;SDS011;3212;51.460;11.868;2022-12-07T09:13:17;14.30;;;7.30;;
6358;SDS011;3212;51.460;11.868;2022-12-07T09:16:40;15.90;;;8.30;;
6358;SDS011;3212;51.460;11.868;2022-12-07T09:20:03;18.23;;;8.30;;
6358;SDS011;3212;51.460;11.868;2022-12-07T09:23:25;17.20;;;7.27;;
6358;SDS011;3212;51.460;11.868;2022-12-07T09:26:48;15.13;;;7.67;;
6358;SDS011;3212;51.460;11.868;2022-12-07T09:30:10;13.83;;;6.70;;
6358;SDS011;3212;51.460;11.868;2022-12-07T09:33:33;9.67;;;5.77;;
6358;SDS011;3212;51.460;11.868;2022-12-07T09:36:55;13.87;;;6.30;;
6358;SDS011;3212;51.460;11.868;2022-12-07T09:40:18;13.60;;;6.43;;
6358;SDS011;3212;51.460;11.868;2022-12-07T09:43:40;11.90;;;5.63;;
6358;SDS011;3212;51.460;11.868;2022-12-07T09:47:02;14.10;;;6.17;;
6358;SDS011;3212;51.460;11.868;2022-12-07T09:50:28;11.00;;;5.70;;
6358;SDS011;3212;51.460;11.868;2022-12-07T09:53:48;11.27;;;5.90;;
6358;SDS011;3212;51.460;11.868;2022-12-07T09:57:11;13.50;;;6.90;;
6358;SDS011;3212;51.460;11.868;2022-12-07T10:00:33;9.03;;;5.67;;
6358;SDS011;3212;51.460;11.868;2022-12-07T10:04:01;9.33;;;5.80;;
6358;SDS011;3212;51.460;11.868;2022-12-07T10:07:31;10.30;;;5.57;;
6358;SDS011;3212;51.460;11.868;2022-12-07T10:10:55;11.03;;;5.40;;
6358;SDS011;3212;51.460;11.868;2022-12-07T10:14:18;11.93;;;6.30;;
6358;SDS011;3212;51.460;11.868;2022-12-07T10:17:41;11.93;;;5.63;;
6358;SDS011;3212;51.460;11.868;2022-12-07T10:21:05;12.50;;;6.10;;
6358;SDS011;3212;51.460;11.868;2022-12-07T10:24:27;11.40;;;5.60;;
6358;SDS011;3212;51.460;11.868;2022-12-07T10:31:21;12.00;;;5.63;;
6358;SDS011;3212;51.460;11.868;2022-12-07T10:34:43;11.37;;;5.70;;
6358;SDS011;3212;51.460;11.868;2022-12-07T10:38:07;8.27;;;5.00;;
6358;SDS011;3212;51.460;11.868;2022-12-07T10:41:28;12.77;;;6.17;;
6358;SDS011;3212;51.460;11.868;2022-12-07T10:48:31;12.37;;;6.73;;
6358;SDS011;3212;51.460;11.868;2022-12-07T10:51:59;11.63;;;6.20;;
6358;SDS011;3212;51.460;11.868;2022-12-07T10:55:39;10.17;;;5.93;;
6358;SDS011;3212;51.460;11.868;2022-12-07T10:59:01;10.60;;;5.20;;
6358;SDS011;3212;51.460;11.868;2022-12-07T11:02:42;9.27;;;5.17;;
6358;SDS011;3212;51.460;11.868;2022-12-07T11:06:22;10.60;;;6.33;;
6358;SDS011;3212;51.460;11.868;2022-12-07T11:09:51;10.13;;;5.83;;
6358;SDS011;3212;51.460;11.868;2022-12-07T11:13:17;15.53;;;9.00;;
6358;SDS011;3212;51.460;11.868;2022-12-07T11:24:14;9.40;;;5.63;;
6358;SDS011;3212;51.460;11.868;2022-12-07T11:27:37;10.70;;;5.30;;
6358;SDS011;3212;51.460;11.868;2022-12-07T11:31:06;9.20;;;4.60;;
6358;SDS011;3212;51.460;11.868;2022-12-07T11:34:41;5.70;;;3.40;;
6358;SDS011;3212;51.460;11.868;2022-12-07T11:38:23;10.73;;;5.37;;
6358;SDS011;3212;51.460;11.868;2022-12-07T11:41:44;5.10;;;3.70;;
6358;SDS011;3212;51.460;11.868;2022-12-07T11:45:13;6.73;;;4.17;;
6358;SDS011;3212;51.460;11.868;2022-12-07T11:48:37;5.50;;;2.80;;
6358;SDS011;3212;51.460;11.868;2022-12-07T11:51:58;3.20;;;2.50;;
6358;SDS011;3212;51.460;11.868;2022-12-07T11:55:22;3.60;;;2.10;;
6358;SDS011;3212;51.460;11.868;2022-12-07T11:58:55;3.03;;;2.17;;
6358;SDS011;3212;51.460;11.868;2022-12-07T12:02:20;6.90;;;2.03;;
6358;SDS011;3212;51.460;11.868;2022-12-07T12:05:41;3.00;;;2.10;;
6358;SDS011;3212;51.460;11.868;2022-12-07T12:09:12;3.17;;;2.20;;
6358;SDS011;3212;51.460;11.868;2022-12-07T12:12:45;2.43;;;2.17;;
6358;SDS011;3212;51.460;11.868;2022-12-07T12:16:39;3.13;;;2.30;;
6358;SDS011;3212;51.460;11.868;2022-12-07T12:23:59;3.10;;;2.20;;
6358;SDS011;3212;51.460;11.868;2022-12-07T12:27:38;4.75;;;2.30;;
6358;SDS011;3212;51.460;11.868;2022-12-07T12:31:05;2.40;;;2.20;;
6358;SDS011;3212;51.460;11.868;2022-12-07T12:34:31;5.83;;;2.20;;
6358;SDS011;3212;51.460;11.868;2022-12-07T12:37:56;5.77;;;3.47;;
6358;SDS011;3212;51.460;11.868;2022-12-07T12:48:27;5.50;;;3.03;;
6358;SDS011;3212;51.460;11.868;2022-12-07T12:51:49;4.47;;;2.50;;
6358;SDS011;3212;51.460;11.868;2022-12-07T12:59:21;4.10;;;2.90;;
6358;SDS011;3212;51.460;11.868;2022-12-07T13:02:49;8.47;;;4.40;;
6358;SDS011;3212;51.460;11.868;2022-12-07T13:06:17;6.60;;;3.67;;
6358;SDS011;3212;51.460;11.868;2022-12-07T13:09:42;7.63;;;3.80;;
6358;SDS011;3212;51.460;11.868;2022-12-07T13:16:47;8.63;;;5.43;;
6358;SDS011;3212;51.460;11.868;2022-12-07T13:20:20;5.67;;;2.90;;
6358;SDS011;3212;51.460;11.868;2022-12-07T13:27:17;7.10;;;2.33;;
6358;SDS011;3212;51.460;11.868;2022-12-07T13:30:43;3.40;;;2.30;;
6358;SDS011;3212;51.460;11.868;2022-12-07T13:37:44;3.10;;;2.37;;
6358;SDS011;3212;51.460;11.868;2022-12-07T13:41:13;2.47;;;2.27;;
6358;SDS011;3212;51.460;11.868;2022-12-07T13:44:39;3.30;;;2.37;;
6358;SDS011;3212;51.460;11.868;2022-12-07T13:47:58;5.90;;;2.37;;
6358;SDS011;3212;51.460;11.868;2022-12-07T13:51:24;3.70;;;2.57;;
6358;SDS011;3212;51.460;11.868;2022-12-07T13:54:48;6.77;;;2.90;;
6358;SDS011;3212;51.460;11.868;2022-12-07T13:58:11;5.13;;;2.70;;
6358;SDS011;3212;51.460;11.868;2022-12-07T14:01:35;3.77;;;2.53;;
6358;SDS011;3212;51.460;11.868;2022-12-07T14:08:29;5.77;;;2.60;;
6358;SDS011;3212;51.460;11.868;2022-12-07T14:11:53;2.97;;;2.20;;
6358;SDS011;3212;51.460;11.868;2022-12-07T14:15:15;4.67;;;2.30;;
6358;SDS011;3212;51.460;11.868;2022-12-07T14:18:37;7.60;;;2.40;;
6358;SDS011;3212;51.460;11.868;2022-12-07T14:25:31;3.80;;;2.10;;
6358;SDS011;3212;51.460;11.868;2022-12-07T14:28:52;3.93;;;2.40;;
6358;SDS011;3212;51.460;11.868;2022-12-07T14:32:18;5.30;;;2.50;;
6358;SDS011;3212;51.460;11.868;2022-12-07T14:35:40;2.73;;;2.13;;
6358;SDS011;3212;51.460;11.868;2022-12-07T14:39:02;5.50;;;2.23;;
6358;SDS011;3212;51.460;11.868;2022-12-07T14:42:26;3.00;;;2.10;;
6358;SDS011;3212;51.460;11.868;2022-12-07T14:45:49;4.87;;;2.03;;
6358;SDS011;3212;51.460;11.868;2022-12-07T14:49:12;5.10;;;2.50;;
6358;SDS011;3212;51.460;11.868;2022-12-07T14:52:35;6.67;;;2.40;;
6358;SDS011;3212;51.460;11.868;2022-12-07T14:55:57;6.20;;;2.17;;
6358;SDS011;3212;51.460;11.868;2022-12-07T14:59:20;2.87;;;2.30;;
6358;SDS011;3212;51.460;11.868;2022-12-07T15:02:44;5.10;;;2.90;;
6358;SDS011;3212;51.460;11.868;2022-12-07T15:06:06;6.20;;;2.40;;
6358;SDS011;3212;51.460;11.868;2022-12-07T15:09:29;4.83;;;2.40;;
6358;SDS011;3212;51.460;11.868;2022-12-07T15:12:51;3.90;;;2.30;;
6358;SDS011;3212;51.460;11.868;2022-12-07T15:16:15;4.03;;;2.40;;
6358;SDS011;3212;51.460;11.868;2022-12-07T15:19:36;3.50;;;2.27;;
6358;SDS011;3212;51.460;11.868;2022-12-07T15:22:59;4.47;;;2.63;;
6358;SDS011;3212;51.460;11.868;2022-12-07T15:26:22;9.53;;;2.70;;
6358;SDS011;3212;51.460;11.868;2022-12-07T15:29:45;4.10;;;2.40;;
6358;SDS011;3212;51.460;11.868;2022-12-07T15:33:07;4.90;;;2.50;;
6358;SDS011;3212;51.460;11.868;2022-12-07T15:36:31;4.70;;;2.60;;
6358;SDS011;3212;51.460;11.868;2022-12-07T15:39:54;3.17;;;2.30;;
6358;SDS011;3212;51.460;11.868;2022-12-07T15:43:16;3.87;;;2.30;;
6358;SDS011;3212;51.460;11.868;2022-12-07T15:46:45;6.77;;;2.23;;
6358;SDS011;3212;51.460;11.868;2022-12-07T15:50:09;7.20;;;2.37;;
6358;SDS011;3212;51.460;11.868;2022-12-07T15:53:30;4.00;;;2.60;;
6358;SDS011;3212;51.460;11.868;2022-12-07T15:56:53;4.70;;;2.20;;
6358;SDS011;3212;51.460;11.868;2022-12-07T16:00:15;4.10;;;2.00;;
6358;SDS011;3212;51.460;11.868;2022-12-07T16:03:38;5.70;;;3.30;;
6358;SDS011;3212;51.460;11.868;2022-12-07T16:07:00;4.10;;;2.70;;
6358;SDS011;3212;51.460;11.868;2022-12-07T16:10:23;4.13;;;2.50;;
6358;SDS011;3212;51.460;11.868;2022-12-07T16:13:45;4.40;;;3.00;;
6358;SDS011;3212;51.460;11.868;2022-12-07T16:24:53;3.80;;;2.27;;
6358;SDS011;3212;51.460;11.868;2022-12-07T16:28:16;3.63;;;2.20;;
6358;SDS011;3212;51.460;11.868;2022-12-07T16:31:39;11.00;;;3.10;;
6358;SDS011;3212;51.460;11.868;2022-12-07T16:35:02;5.20;;;3.43;;
6358;SDS011;3212;51.460;11.868;2022-12-07T16:38:26;12.30;;;6.13;;
6358;SDS011;3212;51.460;11.868;2022-12-07T16:41:49;12.90;;;4.80;;
6358;SDS011;3212;51.460;11.868;2022-12-07T16:45:12;8.10;;;3.30;;
6358;SDS011;3212;51.460;11.868;2022-12-07T16:48:36;10.37;;;4.83;;
6358;SDS011;3212;51.460;11.868;2022-12-07T16:51:58;5.32;;;3.00;;
6358;SDS011;3212;51.460;11.868;2022-12-07T16:55:21;8.20;;;3.97;;
6358;SDS011;3212;51.460;11.868;2022-12-07T16:58:44;7.65;;;4.40;;
6358;SDS011;3212;51.460;11.868;2022-12-07T17:02:07;6.43;;;3.20;;
6358;SDS011;3212;51.460;11.868;2022-12-07T17:05:29;32.23;;;13.27;;
6358;SDS011;3212;51.460;11.868;2022-12-07T17:08:51;9.63;;;6.33;;
6358;SDS011;3212;51.460;11.868;2022-12-07T17:12:14;10.65;;;5.30;;
6358;SDS011;3212;51.460;11.868;2022-12-07T17:15:36;12.20;;;5.53;;
6358;SDS011;3212;51.460;11.868;2022-12-07T17:18:59;21.50;;;8.70;;
6358;SDS011;3212;51.460;11.868;2022-12-07T17:22:22;8.55;;;5.35;;
6358;SDS011;3212;51.460;11.868;2022-12-07T17:25:44;7.10;;;4.20;;
6358;SDS011;3212;51.460;11.868;2022-12-07T17:29:07;6.00;;;3.83;;
6358;SDS011;3212;51.460;11.868;2022-12-07T17:32:29;5.93;;;3.47;;
6358;SDS011;3212;51.460;11.868;2022-12-07T17:35:52;13.30;;;4.45;;
6358;SDS011;3212;51.460;11.868;2022-12-07T17:39:16;9.23;;;3.60;;
6358;SDS011;3212;51.460;11.868;2022-12-07T17:42:37;6.97;;;4.23;;
6358;SDS011;3212;51.460;11.868;2022-12-07T17:46:06;8.03;;;4.00;;
6358;SDS011;3212;51.460;11.868;2022-12-07T17:49:27;8.13;;;4.17;;
6358;SDS011;3212;51.460;11.868;2022-12-07T17:52:50;10.73;;;3.40;;
6358;SDS011;3212;51.460;11.868;2022-12-07T17:56:20;16.40;;;3.57;;
6358;SDS011;3212;51.460;11.868;2022-12-07T17:59:42;7.30;;;3.40;;
6358;SDS011;3212;51.460;11.868;2022-12-07T18:03:05;7.33;;;3.37;;
6358;SDS011;3212;51.460;11.868;2022-12-07T18:06:28;6.23;;;3.10;;
6358;SDS011;3212;51.460;11.868;2022-12-07T18:09:50;6.60;;;3.40;;
6358;SDS011;3212;51.460;11.868;2022-12-07T18:13:13;8.93;;;2.83;;
6358;SDS011;3212;51.460;11.868;2022-12-07T18:16:41;6.80;;;3.50;;
6358;SDS011;3212;51.460;11.868;2022-12-07T18:20:04;4.63;;;3.20;;
6358;SDS011;3212;51.460;11.868;2022-12-07T18:23:27;6.57;;;3.70;;
6358;SDS011;3212;51.460;11.868;2022-12-07T18:26:50;6.30;;;3.07;;
6358;SDS011;3212;51.460;11.868;2022-12-07T18:30:12;6.23;;;3.10;;
6358;SDS011;3212;51.460;11.868;2022-12-07T18:33:35;10.30;;;3.30;;
6358;SDS011;3212;51.460;11.868;2022-12-07T18:36:58;5.33;;;3.17;;
6358;SDS011;3212;51.460;11.868;2022-12-07T18:40:20;9.50;;;3.67;;
6358;SDS011;3212;51.460;11.868;2022-12-07T18:43:43;5.67;;;3.00;;
6358;SDS011;3212;51.460;11.868;2022-12-07T18:47:06;3.90;;;2.67;;
6358;SDS011;3212;51.460;11.868;2022-12-07T18:50:29;6.07;;;3.57;;
6358;SDS011;3212;51.460;11.868;2022-12-07T18:53:51;5.57;;;3.27;;
6358;SDS011;3212;51.460;11.868;2022-12-07T18:57:14;5.30;;;3.30;;
6358;SDS011;3212;51.460;11.868;2022-12-07T19:00:37;6.87;;;3.90;;
6358;SDS011;3212;51.460;11.868;2022-12-07T19:03:59;6.93;;;3.30;;
6358;SDS011;3212;51.460;11.868;2022-12-07T19:07:21;7.20;;;4.37;;
6358;SDS011;3212;51.460;11.868;2022-12-07T19:10:44;5.80;;;4.20;;
6358;SDS011;3212;51.460;11.868;2022-12-07T19:14:07;9.67;;;5.33;;
6358;SDS011;3212;51.460;11.868;2022-12-07T19:17:29;23.93;;;11.60;;
6358;SDS011;3212;51.460;11.868;2022-12-07T19:20:52;20.80;;;9.37;;
6358;SDS011;3212;51.460;11.868;2022-12-07T19:24:14;12.20;;;8.60;;
6358;SDS011;3212;51.460;11.868;2022-12-07T19:27:36;15.03;;;7.27;;
6358;SDS011;3212;51.460;11.868;2022-12-07T19:30:59;16.37;;;5.53;;
6358;SDS011;3212;51.460;11.868;2022-12-07T19:34:22;15.93;;;5.00;;
6358;SDS011;3212;51.460;11.868;2022-12-07T19:37:44;9.13;;;4.60;;
6358;SDS011;3212;51.460;11.868;2022-12-07T19:41:13;10.40;;;5.17;;
6358;SDS011;3212;51.460;11.868;2022-12-07T19:44:41;6.10;;;4.20;;
6358;SDS011;3212;51.460;11.868;2022-12-07T19:48:04;13.67;;;4.50;;
6358;SDS011;3212;51.460;11.868;2022-12-07T19:51:27;5.53;;;3.93;;
6358;SDS011;3212;51.460;11.868;2022-12-07T19:54:50;7.47;;;4.63;;
6358;SDS011;3212;51.460;11.868;2022-12-07T19:58:13;17.27;;;4.30;;
6358;SDS011;3212;51.460;11.868;2022-12-07T20:01:35;8.83;;;4.57;;
6358;SDS011;3212;51.460;11.868;2022-12-07T20:04:57;8.90;;;5.60;;
6358;SDS011;3212;51.460;11.868;2022-12-07T20:08:21;6.70;;;4.07;;
6358;SDS011;3212;51.460;11.868;2022-12-07T20:11:43;6.87;;;4.40;;
6358;SDS011;3212;51.460;11.868;2022-12-07T20:15:11;8.77;;;4.90;;
6358;SDS011;3212;51.460;11.868;2022-12-07T20:18:33;8.40;;;5.40;;
6358;SDS011;3212;51.460;11.868;2022-12-07T20:21:57;11.00;;;4.37;;
6358;SDS011;3212;51.460;11.868;2022-12-07T20:25:19;8.17;;;5.00;;
6358;SDS011;3212;51.460;11.868;2022-12-07T20:28:41;9.97;;;4.90;;
6358;SDS011;3212;51.460;11.868;2022-12-07T20:32:04;10.30;;;5.53;;
6358;SDS011;3212;51.460;11.868;2022-12-07T20:35:26;8.07;;;4.90;;
6358;SDS011;3212;51.460;11.868;2022-12-07T20:38:49;9.30;;;5.53;;
6358;SDS011;3212;51.460;11.868;2022-12-07T20:42:11;9.97;;;5.27;;
6358;SDS011;3212;51.460;11.868;2022-12-07T20:45:44;9.57;;;5.20;;
6358;SDS011;3212;51.460;11.868;2022-12-07T20:49:06;7.20;;;4.60;;
6358;SDS011;3212;51.460;11.868;2022-12-07T20:52:29;7.47;;;3.87;;
6358;SDS011;3212;51.460;11.868;2022-12-07T20:55:52;8.77;;;4.15;;
6358;SDS011;3212;51.460;11.868;2022-12-07T20:59:14;9.50;;;4.40;;
6358;SDS011;3212;51.460;11.868;2022-12-07T21:02:37;8.50;;;4.20;;
6358;SDS011;3212;51.460;11.868;2022-12-07T21:06:00;8.53;;;4.03;;
6358;SDS011;3212;51.460;11.868;2022-12-07T21:09:22;9.50;;;4.00;;
6358;SDS011;3212;51.460;11.868;2022-12-07T21:12:45;9.20;;;4.60;;
6358;SDS011;3212;51.460;11.868;2022-12-07T21:16:09;9.83;;;4.83;;
6358;SDS011;3212;51.460;11.868;2022-12-07T21:19:32;7.33;;;3.70;;
6358;SDS011;3212;51.460;11.868;2022-12-07T21:22:54;10.00;;;4.50;;
6358;SDS011;3212;51.460;11.868;2022-12-07T21:26:18;9.10;;;4.20;;
6358;SDS011;3212;51.460;11.868;2022-12-07T21:29:40;7.50;;;4.60;;
6358;SDS011;3212;51.460;11.868;2022-12-07T21:33:02;8.07;;;4.50;;
6358;SDS011;3212;51.460;11.868;2022-12-07T21:36:25;5.87;;;3.87;;
6358;SDS011;3212;51.460;11.868;2022-12-07T21:39:48;11.90;;;4.73;;